sensor_id;sensor_type;location;lat;lon;timestamp;temperature;humidity
23609;DHT22;11982;50.810;4.442;2022-09-09T00:00:20;14.00;99.90
23609;DHT22;11982;50.810;4.442;2022-09-09T00:08:10;14.30;99.90
23609;DHT22;11982;50.810;4.442;2022-09-09T00:10:40;14.20;99.90
23609;DHT22;11982;50.810;4.442;2022-09-09T00:15:40;14.20;99.90
23609;DHT22;11982;50.810;4.442;2022-09-09T00:18:50;14.20;99.90
23609;DHT22;11982;50.810;4.442;2022-09-09T00:21:18;14.00;99.90
23609;DHT22;11982;50.810;4.442;2022-09-09T00:23:49;13.90;99.90
23609;DHT22;11982;50.810;4.442;2022-09-09T00:31:35;13.90;99.90
23609;DHT22;11982;50.810;4.442;2022-09-09T00:34:13;13.90;99.90
23609;DHT22;11982;50.810;4.442;2022-09-09T00:36:42;14.00;99.90
23609;DHT22;11982;50.810;4.442;2022-09-09T00:44:36;14.10;99.90
23609;DHT22;11982;50.810;4.442;2022-09-09T00:47:53;14.20;99.90
23609;DHT22;11982;50.810;4.442;2022-09-09T00:50:35;14.20;99.90
23609;DHT22;11982;50.810;4.442;2022-09-09T00:53:51;14.20;99.90
23609;DHT22;11982;50.810;4.442;2022-09-09T00:56:29;14.30;99.90
23609;DHT22;11982;50.810;4.442;2022-09-09T01:01:36;14.20;99.90
23609;DHT22;11982;50.810;4.442;2022-09-09T01:04:08;14.20;99.90
23609;DHT22;11982;50.810;4.442;2022-09-09T01:06:37;14.30;99.90
23609;DHT22;11982;50.810;4.442;2022-09-09T01:09:26;14.30;99.90
23609;DHT22;11982;50.810;4.442;2022-09-09T01:17:26;14.40;99.90
23609;DHT22;11982;50.810;4.442;2022-09-09T01:20:30;14.30;99.90
23609;DHT22;11982;50.810;4.442;2022-09-09T01:23:00;14.30;99.90
23609;DHT22;11982;50.810;4.442;2022-09-09T01:28:16;14.30;99.90
23609;DHT22;11982;50.810;4.442;2022-09-09T01:30:44;14.40;99.90
23609;DHT22;11982;50.810;4.442;2022-09-09T01:33:15;14.30;99.90
23609;DHT22;11982;50.810;4.442;2022-09-09T01:36:02;14.30;99.90
23609;DHT22;11982;50.810;4.442;2022-09-09T01:38:29;14.30;99.90
23609;DHT22;11982;50.810;4.442;2022-09-09T01:40:56;14.30;99.90
23609;DHT22;11982;50.810;4.442;2022-09-09T01:43:24;14.30;99.90
23609;DHT22;11982;50.810;4.442;2022-09-09T01:45:53;14.20;99.90
23609;DHT22;11982;50.810;4.442;2022-09-09T01:48:21;14.30;99.90
23609;DHT22;11982;50.810;4.442;2022-09-09T01:50:48;14.20;99.90
23609;DHT22;11982;50.810;4.442;2022-09-09T01:53:15;14.20;99.90
23609;DHT22;11982;50.810;4.442;2022-09-09T01:55:49;14.30;99.90
23609;DHT22;11982;50.810;4.442;2022-09-09T02:00:56;14.30;99.90
23609;DHT22;11982;50.810;4.442;2022-09-09T02:03:27;14.30;99.90
23609;DHT22;11982;50.810;4.442;2022-09-09T02:11:11;14.10;99.90
23609;DHT22;11982;50.810;4.442;2022-09-09T02:13:39;14.10;99.90
23609;DHT22;11982;50.810;4.442;2022-09-09T02:16:09;14.10;99.90
23609;DHT22;11982;50.810;4.442;2022-09-09T02:19:09;14.10;99.90
23609;DHT22;11982;50.810;4.442;2022-09-09T02:21:39;14.00;99.90
23609;DHT22;11982;50.810;4.442;2022-09-09T02:24:08;14.00;99.90
23609;DHT22;11982;50.810;4.442;2022-09-09T02:26:39;14.00;99.90
23609;DHT22;11982;50.810;4.442;2022-09-09T02:29:08;14.00;99.90
23609;DHT22;11982;50.810;4.442;2022-09-09T02:31:36;14.10;99.90
23609;DHT22;11982;50.810;4.442;2022-09-09T02:34:05;14.00;99.90
23609;DHT22;11982;50.810;4.442;2022-09-09T02:36:33;14.00;99.90
23609;DHT22;11982;50.810;4.442;2022-09-09T02:39:00;14.00;99.90
23609;DHT22;11982;50.810;4.442;2022-09-09T02:41:34;14.00;99.90
23609;DHT22;11982;50.810;4.442;2022-09-09T02:44:00;14.00;99.90
23609;DHT22;11982;50.810;4.442;2022-09-09T02:49:16;14.00;99.90
23609;DHT22;11982;50.810;4.442;2022-09-09T02:54:25;14.00;99.90
23609;DHT22;11982;50.810;4.442;2022-09-09T02:56:53;14.00;99.90
23609;DHT22;11982;50.810;4.442;2022-09-09T02:59:22;14.00;99.90
23609;DHT22;11982;50.810;4.442;2022-09-09T03:01:48;13.90;99.90
23609;DHT22;11982;50.810;4.442;2022-09-09T03:04:13;14.00;99.90
23609;DHT22;11982;50.810;4.442;2022-09-09T03:06:39;14.00;99.90
23609;DHT22;11982;50.810;4.442;2022-09-09T03:09:05;13.90;99.90
23609;DHT22;11982;50.810;4.442;2022-09-09T03:11:30;13.90;99.90
23609;DHT22;11982;50.810;4.442;2022-09-09T03:13:56;14.00;99.90
23609;DHT22;11982;50.810;4.442;2022-09-09T03:16:23;13.90;99.90
23609;DHT22;11982;50.810;4.442;2022-09-09T03:18:48;13.90;99.90
23609;DHT22;11982;50.810;4.442;2022-09-09T03:21:15;13.90;99.90
23609;DHT22;11982;50.810;4.442;2022-09-09T03:23:41;13.90;99.90
23609;DHT22;11982;50.810;4.442;2022-09-09T03:26:07;13.90;99.90
23609;DHT22;11982;50.810;4.442;2022-09-09T03:28:32;13.90;99.90
23609;DHT22;11982;50.810;4.442;2022-09-09T03:31:03;14.00;99.90
23609;DHT22;11982;50.810;4.442;2022-09-09T03:33:29;14.00;99.90
23609;DHT22;11982;50.810;4.442;2022-09-09T03:35:55;13.90;99.90
23609;DHT22;11982;50.810;4.442;2022-09-09T03:38:25;13.90;99.90
23609;DHT22;11982;50.810;4.442;2022-09-09T03:40:52;14.00;99.90
23609;DHT22;11982;50.810;4.442;2022-09-09T03:43:22;14.00;99.90
23609;DHT22;11982;50.810;4.442;2022-09-09T03:45:48;14.00;99.90
23609;DHT22;11982;50.810;4.442;2022-09-09T03:48:14;14.00;99.90
23609;DHT22;11982;50.810;4.442;2022-09-09T03:50:51;14.00;99.90
23609;DHT22;11982;50.810;4.442;2022-09-09T03:53:18;13.90;99.90
23609;DHT22;11982;50.810;4.442;2022-09-09T03:55:46;13.90;99.90
23609;DHT22;11982;50.810;4.442;2022-09-09T03:58:13;14.00;99.90
23609;DHT22;11982;50.810;4.442;2022-09-09T04:00:40;14.00;99.90
23609;DHT22;11982;50.810;4.442;2022-09-09T04:03:11;14.00;99.90
23609;DHT22;11982;50.810;4.442;2022-09-09T04:05:39;14.00;99.90
23609;DHT22;11982;50.810;4.442;2022-09-09T04:08:08;14.10;99.90
23609;DHT22;11982;50.810;4.442;2022-09-09T04:10:34;14.10;99.90
23609;DHT22;11982;50.810;4.442;2022-09-09T04:13:03;14.10;99.90
23609;DHT22;11982;50.810;4.442;2022-09-09T04:15:30;14.10;99.90
23609;DHT22;11982;50.810;4.442;2022-09-09T04:17:56;14.20;99.90
23609;DHT22;11982;50.810;4.442;2022-09-09T04:20:21;14.20;99.90
23609;DHT22;11982;50.810;4.442;2022-09-09T04:22:47;14.20;99.90
23609;DHT22;11982;50.810;4.442;2022-09-09T04:25:13;14.20;99.90
23609;DHT22;11982;50.810;4.442;2022-09-09T04:27:39;14.20;99.90
23609;DHT22;11982;50.810;4.442;2022-09-09T04:30:06;14.20;99.90
23609;DHT22;11982;50.810;4.442;2022-09-09T04:32:33;14.20;99.90
23609;DHT22;11982;50.810;4.442;2022-09-09T04:34:59;14.10;99.90
23609;DHT22;11982;50.810;4.442;2022-09-09T04:37:24;14.00;99.90
23609;DHT22;11982;50.810;4.442;2022-09-09T04:39:50;14.00;99.90
23609;DHT22;11982;50.810;4.442;2022-09-09T04:42:16;14.00;99.90
23609;DHT22;11982;50.810;4.442;2022-09-09T04:44:43;14.00;99.90
23609;DHT22;11982;50.810;4.442;2022-09-09T04:47:09;14.00;99.90
23609;DHT22;11982;50.810;4.442;2022-09-09T04:49:35;14.00;99.90
23609;DHT22;11982;50.810;4.442;2022-09-09T04:52:02;14.00;99.90
23609;DHT22;11982;50.810;4.442;2022-09-09T04:54:29;14.00;99.90
23609;DHT22;11982;50.810;4.442;2022-09-09T04:56:54;14.00;99.90
23609;DHT22;11982;50.810;4.442;2022-09-09T04:59:20;13.90;99.90
23609;DHT22;11982;50.810;4.442;2022-09-09T05:01:47;14.00;99.90
23609;DHT22;11982;50.810;4.442;2022-09-09T05:04:13;14.00;99.90
23609;DHT22;11982;50.810;4.442;2022-09-09T05:06:41;14.00;99.90
23609;DHT22;11982;50.810;4.442;2022-09-09T05:09:08;14.00;99.90
23609;DHT22;11982;50.810;4.442;2022-09-09T05:11:34;14.00;99.90
23609;DHT22;11982;50.810;4.442;2022-09-09T05:14:02;14.00;99.90
23609;DHT22;11982;50.810;4.442;2022-09-09T05:16:28;14.10;99.90
23609;DHT22;11982;50.810;4.442;2022-09-09T05:18:55;14.00;99.90
23609;DHT22;11982;50.810;4.442;2022-09-09T05:21:22;14.10;99.90
23609;DHT22;11982;50.810;4.442;2022-09-09T05:23:48;14.10;99.90
23609;DHT22;11982;50.810;4.442;2022-09-09T05:26:18;14.20;99.90
23609;DHT22;11982;50.810;4.442;2022-09-09T05:28:44;14.20;99.90
23609;DHT22;11982;50.810;4.442;2022-09-09T05:31:11;14.20;99.90
23609;DHT22;11982;50.810;4.442;2022-09-09T05:33:38;14.20;99.90
23609;DHT22;11982;50.810;4.442;2022-09-09T05:36:07;14.30;99.90
23609;DHT22;11982;50.810;4.442;2022-09-09T05:38:34;14.40;99.90
23609;DHT22;11982;50.810;4.442;2022-09-09T05:41:01;14.40;99.90
23609;DHT22;11982;50.810;4.442;2022-09-09T05:43:28;14.50;99.90
23609;DHT22;11982;50.810;4.442;2022-09-09T05:46:04;14.50;99.90
23609;DHT22;11982;50.810;4.442;2022-09-09T05:48:32;14.50;99.90
23609;DHT22;11982;50.810;4.442;2022-09-09T05:50:59;14.50;99.90
23609;DHT22;11982;50.810;4.442;2022-09-09T05:53:28;14.40;99.90
23609;DHT22;11982;50.810;4.442;2022-09-09T05:56:02;14.40;99.90
23609;DHT22;11982;50.810;4.442;2022-09-09T05:58:30;14.40;99.90
23609;DHT22;11982;50.810;4.442;2022-09-09T06:01:07;14.40;99.90
23609;DHT22;11982;50.810;4.442;2022-09-09T06:03:39;14.40;99.90
23609;DHT22;11982;50.810;4.442;2022-09-09T06:06:07;14.40;99.90
23609;DHT22;11982;50.810;4.442;2022-09-09T06:08:38;14.50;99.90
23609;DHT22;11982;50.810;4.442;2022-09-09T06:13:31;14.60;99.90
23609;DHT22;11982;50.810;4.442;2022-09-09T06:15:57;14.60;99.90
23609;DHT22;11982;50.810;4.442;2022-09-09T06:18:24;14.70;99.90
23609;DHT22;11982;50.810;4.442;2022-09-09T06:21:00;14.70;99.90
23609;DHT22;11982;50.810;4.442;2022-09-09T06:23:27;14.80;99.90
23609;DHT22;11982;50.810;4.442;2022-09-09T06:26:09;14.80;99.90
23609;DHT22;11982;50.810;4.442;2022-09-09T06:28:35;14.80;99.90
23609;DHT22;11982;50.810;4.442;2022-09-09T06:31:03;14.80;99.90
23609;DHT22;11982;50.810;4.442;2022-09-09T06:33:34;14.80;99.90
23609;DHT22;11982;50.810;4.442;2022-09-09T06:36:01;14.90;99.90
23609;DHT22;11982;50.810;4.442;2022-09-09T06:38:27;15.00;99.90
23609;DHT22;11982;50.810;4.442;2022-09-09T06:40:59;15.20;99.90
23609;DHT22;11982;50.810;4.442;2022-09-09T06:43:26;15.30;99.90
23609;DHT22;11982;50.810;4.442;2022-09-09T06:45:55;15.30;99.90
23609;DHT22;11982;50.810;4.442;2022-09-09T06:48:21;15.40;99.90
23609;DHT22;11982;50.810;4.442;2022-09-09T06:50:46;15.40;99.90
23609;DHT22;11982;50.810;4.442;2022-09-09T06:53:15;15.50;99.90
23609;DHT22;11982;50.810;4.442;2022-09-09T06:55:41;15.40;99.90
23609;DHT22;11982;50.810;4.442;2022-09-09T06:58:09;15.50;99.90
23609;DHT22;11982;50.810;4.442;2022-09-09T07:00:35;15.40;99.90
23609;DHT22;11982;50.810;4.442;2022-09-09T07:03:03;15.50;99.90
23609;DHT22;11982;50.810;4.442;2022-09-09T07:05:28;15.60;99.90
23609;DHT22;11982;50.810;4.442;2022-09-09T07:07:54;15.60;99.90
23609;DHT22;11982;50.810;4.442;2022-09-09T07:10:20;15.70;99.90
23609;DHT22;11982;50.810;4.442;2022-09-09T07:12:51;15.90;99.90
23609;DHT22;11982;50.810;4.442;2022-09-09T07:15:17;15.80;99.90
23609;DHT22;11982;50.810;4.442;2022-09-09T07:17:44;16.00;99.90
23609;DHT22;11982;50.810;4.442;2022-09-09T07:20:10;15.90;99.90
23609;DHT22;11982;50.810;4.442;2022-09-09T07:22:36;16.00;99.90
23609;DHT22;11982;50.810;4.442;2022-09-09T07:25:01;16.00;99.90
23609;DHT22;11982;50.810;4.442;2022-09-09T07:27:27;16.00;99.90
23609;DHT22;11982;50.810;4.442;2022-09-09T07:29:53;15.80;99.90
23609;DHT22;11982;50.810;4.442;2022-09-09T07:32:20;15.80;99.90
23609;DHT22;11982;50.810;4.442;2022-09-09T07:34:46;15.90;99.90
23609;DHT22;11982;50.810;4.442;2022-09-09T07:37:13;15.80;99.90
23609;DHT22;11982;50.810;4.442;2022-09-09T07:39:39;15.80;99.90
23609;DHT22;11982;50.810;4.442;2022-09-09T07:42:05;15.90;99.90
23609;DHT22;11982;50.810;4.442;2022-09-09T07:44:31;15.90;99.90
23609;DHT22;11982;50.810;4.442;2022-09-09T07:47:00;15.70;99.90
23609;DHT22;11982;50.810;4.442;2022-09-09T07:49:26;15.60;99.90
23609;DHT22;11982;50.810;4.442;2022-09-09T07:51:52;15.40;99.90
23609;DHT22;11982;50.810;4.442;2022-09-09T07:54:19;15.40;99.90
23609;DHT22;11982;50.810;4.442;2022-09-09T07:56:46;15.40;99.90
23609;DHT22;11982;50.810;4.442;2022-09-09T07:59:12;15.30;99.90
23609;DHT22;11982;50.810;4.442;2022-09-09T08:01:44;15.40;99.90
23609;DHT22;11982;50.810;4.442;2022-09-09T08:04:13;15.50;99.90
23609;DHT22;11982;50.810;4.442;2022-09-09T08:06:51;15.50;99.90
23609;DHT22;11982;50.810;4.442;2022-09-09T08:09:18;15.60;99.90
23609;DHT22;11982;50.810;4.442;2022-09-09T08:11:45;15.70;99.90
23609;DHT22;11982;50.810;4.442;2022-09-09T08:14:11;15.80;99.90
23609;DHT22;11982;50.810;4.442;2022-09-09T08:16:40;15.90;99.90
23609;DHT22;11982;50.810;4.442;2022-09-09T08:19:06;16.00;99.90
23609;DHT22;11982;50.810;4.442;2022-09-09T08:21:34;16.20;99.90
23609;DHT22;11982;50.810;4.442;2022-09-09T08:24:02;16.20;99.90
23609;DHT22;11982;50.810;4.442;2022-09-09T08:26:30;16.60;99.90
23609;DHT22;11982;50.810;4.442;2022-09-09T08:28:58;16.70;99.90
23609;DHT22;11982;50.810;4.442;2022-09-09T08:31:26;16.80;99.90
23609;DHT22;11982;50.810;4.442;2022-09-09T08:33:54;16.80;99.90
23609;DHT22;11982;50.810;4.442;2022-09-09T08:36:22;16.80;99.90
23609;DHT22;11982;50.810;4.442;2022-09-09T08:38:52;16.80;99.90
23609;DHT22;11982;50.810;4.442;2022-09-09T08:41:42;16.70;99.90
23609;DHT22;11982;50.810;4.442;2022-09-09T08:55:41;16.10;99.90
23609;DHT22;11982;50.810;4.442;2022-09-09T09:09:32;16.30;99.90
23609;DHT22;11982;50.810;4.442;2022-09-09T09:12:06;16.30;99.90
23609;DHT22;11982;50.810;4.442;2022-09-09T09:14:35;16.30;99.90
23609;DHT22;11982;50.810;4.442;2022-09-09T09:17:10;16.20;99.90
23609;DHT22;11982;50.810;4.442;2022-09-09T09:19:39;16.30;99.90
23609;DHT22;11982;50.810;4.442;2022-09-09T09:22:19;16.20;99.90
23609;DHT22;11982;50.810;4.442;2022-09-09T09:24:56;16.10;99.90
23609;DHT22;11982;50.810;4.442;2022-09-09T09:27:36;16.00;99.90
23609;DHT22;11982;50.810;4.442;2022-09-09T09:30:18;15.90;99.90
23609;DHT22;11982;50.810;4.442;2022-09-09T09:32:56;15.90;99.90
23609;DHT22;11982;50.810;4.442;2022-09-09T09:35:23;15.80;99.90
23609;DHT22;11982;50.810;4.442;2022-09-09T09:37:49;16.00;99.90
23609;DHT22;11982;50.810;4.442;2022-09-09T09:40:17;16.00;99.90
23609;DHT22;11982;50.810;4.442;2022-09-09T09:43:01;16.00;99.90
23609;DHT22;11982;50.810;4.442;2022-09-09T09:45:35;16.00;99.90
23609;DHT22;11982;50.810;4.442;2022-09-09T09:48:10;15.90;99.90
23609;DHT22;11982;50.810;4.442;2022-09-09T09:53:33;15.90;99.90
23609;DHT22;11982;50.810;4.442;2022-09-09T09:56:02;16.00;99.90
23609;DHT22;11982;50.810;4.442;2022-09-09T09:58:31;15.90;99.90
23609;DHT22;11982;50.810;4.442;2022-09-09T10:00:59;15.90;99.90
23609;DHT22;11982;50.810;4.442;2022-09-09T10:03:33;15.90;99.90
23609;DHT22;11982;50.810;4.442;2022-09-09T10:06:03;15.90;99.90
23609;DHT22;11982;50.810;4.442;2022-09-09T10:08:29;15.90;99.90
23609;DHT22;11982;50.810;4.442;2022-09-09T10:11:10;15.90;99.90
23609;DHT22;11982;50.810;4.442;2022-09-09T10:16:47;16.00;99.90
23609;DHT22;11982;50.810;4.442;2022-09-09T10:19:34;16.10;99.90
23609;DHT22;11982;50.810;4.442;2022-09-09T10:22:21;16.10;99.90
23609;DHT22;11982;50.810;4.442;2022-09-09T10:33:53;16.10;99.90
23609;DHT22;11982;50.810;4.442;2022-09-09T10:36:25;16.20;99.90
23609;DHT22;11982;50.810;4.442;2022-09-09T10:42:02;16.50;99.90
23609;DHT22;11982;50.810;4.442;2022-09-09T10:47:39;16.80;99.90
23609;DHT22;11982;50.810;4.442;2022-09-09T10:50:12;16.90;99.90
23609;DHT22;11982;50.810;4.442;2022-09-09T10:52:59;16.90;99.90
23609;DHT22;11982;50.810;4.442;2022-09-09T10:55:43;17.10;99.90
23609;DHT22;11982;50.810;4.442;2022-09-09T10:58:14;17.40;99.90
23609;DHT22;11982;50.810;4.442;2022-09-09T11:00:48;17.50;99.90
23609;DHT22;11982;50.810;4.442;2022-09-09T11:03:35;17.60;99.90
23609;DHT22;11982;50.810;4.442;2022-09-09T11:06:09;17.70;99.90
23609;DHT22;11982;50.810;4.442;2022-09-09T11:08:38;17.80;99.90
23609;DHT22;11982;50.810;4.442;2022-09-09T11:11:19;18.00;99.90
23609;DHT22;11982;50.810;4.442;2022-09-09T11:14:05;18.10;99.90
23609;DHT22;11982;50.810;4.442;2022-09-09T11:16:49;18.00;99.90
23609;DHT22;11982;50.810;4.442;2022-09-09T11:19:27;18.10;99.90
23609;DHT22;11982;50.810;4.442;2022-09-09T11:21:55;18.00;99.90
23609;DHT22;11982;50.810;4.442;2022-09-09T11:24:41;17.90;99.90
23609;DHT22;11982;50.810;4.442;2022-09-09T11:27:42;18.20;99.90
23609;DHT22;11982;50.810;4.442;2022-09-09T11:30:19;18.00;99.90
23609;DHT22;11982;50.810;4.442;2022-09-09T11:38:18;18.10;99.90
23609;DHT22;11982;50.810;4.442;2022-09-09T11:40:45;18.00;99.90
23609;DHT22;11982;50.810;4.442;2022-09-09T11:43:24;17.90;99.90
23609;DHT22;11982;50.810;4.442;2022-09-09T11:45:56;18.00;99.90
23609;DHT22;11982;50.810;4.442;2022-09-09T11:48:57;18.10;99.90
23609;DHT22;11982;50.810;4.442;2022-09-09T11:51:31;18.10;99.90
23609;DHT22;11982;50.810;4.442;2022-09-09T11:54:33;18.10;99.90
23609;DHT22;11982;50.810;4.442;2022-09-09T11:57:34;18.10;99.90
23609;DHT22;11982;50.810;4.442;2022-09-09T12:00:00;18.30;99.90
23609;DHT22;11982;50.810;4.442;2022-09-09T12:02:30;18.30;99.90
23609;DHT22;11982;50.810;4.442;2022-09-09T12:05:07;18.30;99.90
23609;DHT22;11982;50.810;4.442;2022-09-09T12:07:56;18.30;99.90
23609;DHT22;11982;50.810;4.442;2022-09-09T12:10:38;18.40;99.90
23609;DHT22;11982;50.810;4.442;2022-09-09T12:15:48;18.60;99.90
23609;DHT22;11982;50.810;4.442;2022-09-09T12:18:22;18.50;99.90
23609;DHT22;11982;50.810;4.442;2022-09-09T12:24:11;18.10;99.90
23609;DHT22;11982;50.810;4.442;2022-09-09T12:26:47;18.20;99.90
23609;DHT22;11982;50.810;4.442;2022-09-09T12:36:44;18.30;99.90
23609;DHT22;11982;50.810;4.442;2022-09-09T12:39:35;18.20;99.90
23609;DHT22;11982;50.810;4.442;2022-09-09T12:42:03;18.40;99.90
23609;DHT22;11982;50.810;4.442;2022-09-09T12:44:30;18.60;99.90
23609;DHT22;11982;50.810;4.442;2022-09-09T12:47:01;18.90;99.90
23609;DHT22;11982;50.810;4.442;2022-09-09T12:49:36;18.80;99.90
23609;DHT22;11982;50.810;4.442;2022-09-09T12:52:26;18.90;99.90
23609;DHT22;11982;50.810;4.442;2022-09-09T12:54:55;19.10;99.90
23609;DHT22;11982;50.810;4.442;2022-09-09T12:57:23;19.20;99.90
23609;DHT22;11982;50.810;4.442;2022-09-09T13:00:04;19.30;99.90
23609;DHT22;11982;50.810;4.442;2022-09-09T13:02:33;19.30;99.90
23609;DHT22;11982;50.810;4.442;2022-09-09T13:05:38;19.30;99.90
23609;DHT22;11982;50.810;4.442;2022-09-09T13:08:10;19.20;99.90
23609;DHT22;11982;50.810;4.442;2022-09-09T13:10:50;19.20;99.90
23609;DHT22;11982;50.810;4.442;2022-09-09T13:13:22;19.10;99.90
23609;DHT22;11982;50.810;4.442;2022-09-09T13:15:56;19.10;99.90
23609;DHT22;11982;50.810;4.442;2022-09-09T13:18:34;19.30;99.90
23609;DHT22;11982;50.810;4.442;2022-09-09T13:21:01;19.50;99.90
23609;DHT22;11982;50.810;4.442;2022-09-09T13:23:30;19.40;99.90
23609;DHT22;11982;50.810;4.442;2022-09-09T13:25:59;19.50;99.90
23609;DHT22;11982;50.810;4.442;2022-09-09T13:28:27;19.70;99.90
23609;DHT22;11982;50.810;4.442;2022-09-09T13:31:04;19.80;99.90
23609;DHT22;11982;50.810;4.442;2022-09-09T13:33:33;19.70;99.90
23609;DHT22;11982;50.810;4.442;2022-09-09T13:38:33;19.90;99.90
23609;DHT22;11982;50.810;4.442;2022-09-09T13:41:06;20.00;99.90
23609;DHT22;11982;50.810;4.442;2022-09-09T13:43:52;20.10;99.90
23609;DHT22;11982;50.810;4.442;2022-09-09T13:46:30;20.30;99.90
23609;DHT22;11982;50.810;4.442;2022-09-09T13:49:00;20.30;99.90
23609;DHT22;11982;50.810;4.442;2022-09-09T13:51:37;20.30;99.90
23609;DHT22;11982;50.810;4.442;2022-09-09T13:54:08;20.40;99.90
23609;DHT22;11982;50.810;4.442;2022-09-09T13:56:35;20.50;99.90
23609;DHT22;11982;50.810;4.442;2022-09-09T13:59:01;20.90;99.90
23609;DHT22;11982;50.810;4.442;2022-09-09T14:01:27;20.60;99.90
23609;DHT22;11982;50.810;4.442;2022-09-09T14:03:54;20.30;99.90
23609;DHT22;11982;50.810;4.442;2022-09-09T14:06:20;20.20;99.90
23609;DHT22;11982;50.810;4.442;2022-09-09T14:08:47;20.10;99.90
23609;DHT22;11982;50.810;4.442;2022-09-09T14:11:14;20.10;99.90
23609;DHT22;11982;50.810;4.442;2022-09-09T14:13:40;20.00;99.90
23609;DHT22;11982;50.810;4.442;2022-09-09T14:16:06;20.10;99.90
23609;DHT22;11982;50.810;4.442;2022-09-09T14:18:31;20.20;99.90
23609;DHT22;11982;50.810;4.442;2022-09-09T14:20:57;20.20;99.90
23609;DHT22;11982;50.810;4.442;2022-09-09T14:23:23;20.00;99.90
23609;DHT22;11982;50.810;4.442;2022-09-09T14:25:51;19.80;99.90
23609;DHT22;11982;50.810;4.442;2022-09-09T14:28:16;19.80;99.90
23609;DHT22;11982;50.810;4.442;2022-09-09T14:30:43;19.60;99.90
23609;DHT22;11982;50.810;4.442;2022-09-09T14:33:14;19.60;99.90
23609;DHT22;11982;50.810;4.442;2022-09-09T14:35:40;19.70;99.90
23609;DHT22;11982;50.810;4.442;2022-09-09T14:38:07;19.70;99.90
23609;DHT22;11982;50.810;4.442;2022-09-09T14:40:37;19.80;99.90
23609;DHT22;11982;50.810;4.442;2022-09-09T14:43:04;19.90;99.90
23609;DHT22;11982;50.810;4.442;2022-09-09T14:45:31;20.30;99.90
23609;DHT22;11982;50.810;4.442;2022-09-09T14:47:56;20.30;99.90
23609;DHT22;11982;50.810;4.442;2022-09-09T14:50:23;20.30;99.90
23609;DHT22;11982;50.810;4.442;2022-09-09T14:52:49;20.20;99.90
23609;DHT22;11982;50.810;4.442;2022-09-09T14:55:16;20.20;99.90
23609;DHT22;11982;50.810;4.442;2022-09-09T14:57:42;20.30;99.90
23609;DHT22;11982;50.810;4.442;2022-09-09T15:00:09;20.30;99.90
23609;DHT22;11982;50.810;4.442;2022-09-09T15:02:36;20.20;99.90
23609;DHT22;11982;50.810;4.442;2022-09-09T15:05:02;20.20;99.90
23609;DHT22;11982;50.810;4.442;2022-09-09T15:07:28;20.20;99.90
23609;DHT22;11982;50.810;4.442;2022-09-09T15:09:54;20.10;99.90
23609;DHT22;11982;50.810;4.442;2022-09-09T15:12:20;19.90;99.90
23609;DHT22;11982;50.810;4.442;2022-09-09T15:14:46;19.80;99.90
23609;DHT22;11982;50.810;4.442;2022-09-09T15:17:12;19.80;99.90
23609;DHT22;11982;50.810;4.442;2022-09-09T15:19:38;19.90;99.90
23609;DHT22;11982;50.810;4.442;2022-09-09T15:22:05;20.30;99.90
23609;DHT22;11982;50.810;4.442;2022-09-09T15:24:32;20.60;99.90
23609;DHT22;11982;50.810;4.442;2022-09-09T15:26:58;20.50;99.90
23609;DHT22;11982;50.810;4.442;2022-09-09T15:29:24;20.20;99.90
23609;DHT22;11982;50.810;4.442;2022-09-09T15:31:50;20.10;99.90
23609;DHT22;11982;50.810;4.442;2022-09-09T15:34:15;19.90;99.90
23609;DHT22;11982;50.810;4.442;2022-09-09T15:36:42;19.80;99.90
23609;DHT22;11982;50.810;4.442;2022-09-09T15:39:10;19.80;99.90
23609;DHT22;11982;50.810;4.442;2022-09-09T15:41:42;19.60;99.90
23609;DHT22;11982;50.810;4.442;2022-09-09T15:44:10;19.40;99.90
23609;DHT22;11982;50.810;4.442;2022-09-09T15:46:39;19.30;99.90
23609;DHT22;11982;50.810;4.442;2022-09-09T15:51:38;19.30;99.90
23609;DHT22;11982;50.810;4.442;2022-09-09T15:54:04;19.30;99.90
23609;DHT22;11982;50.810;4.442;2022-09-09T15:56:37;19.30;99.90
23609;DHT22;11982;50.810;4.442;2022-09-09T15:59:03;19.40;99.90
23609;DHT22;11982;50.810;4.442;2022-09-09T16:01:29;19.50;99.90
23609;DHT22;11982;50.810;4.442;2022-09-09T16:03:56;19.60;99.90
23609;DHT22;11982;50.810;4.442;2022-09-09T16:06:23;19.50;99.90
23609;DHT22;11982;50.810;4.442;2022-09-09T16:08:52;19.40;99.90
23609;DHT22;11982;50.810;4.442;2022-09-09T16:11:27;19.30;99.90
23609;DHT22;11982;50.810;4.442;2022-09-09T16:13:53;19.10;99.90
23609;DHT22;11982;50.810;4.442;2022-09-09T16:16:24;19.00;99.90
23609;DHT22;11982;50.810;4.442;2022-09-09T16:18:53;18.90;99.90
23609;DHT22;11982;50.810;4.442;2022-09-09T16:23:47;18.80;99.90
23609;DHT22;11982;50.810;4.442;2022-09-09T16:26:15;18.90;99.90
23609;DHT22;11982;50.810;4.442;2022-09-09T16:28:41;18.80;99.90
23609;DHT22;11982;50.810;4.442;2022-09-09T16:31:09;18.60;99.90
23609;DHT22;11982;50.810;4.442;2022-09-09T16:33:38;18.30;99.90
23609;DHT22;11982;50.810;4.442;2022-09-09T16:36:08;17.70;99.90
23609;DHT22;11982;50.810;4.442;2022-09-09T16:38:33;17.00;99.90
23609;DHT22;11982;50.810;4.442;2022-09-09T16:41:02;16.60;99.90
23609;DHT22;11982;50.810;4.442;2022-09-09T16:43:27;16.40;99.90
23609;DHT22;11982;50.810;4.442;2022-09-09T16:45:53;16.20;99.90
23609;DHT22;11982;50.810;4.442;2022-09-09T16:48:18;16.20;99.90
23609;DHT22;11982;50.810;4.442;2022-09-09T16:50:45;16.10;99.90
23609;DHT22;11982;50.810;4.442;2022-09-09T16:53:11;16.10;99.90
23609;DHT22;11982;50.810;4.442;2022-09-09T16:55:41;16.10;99.90
23609;DHT22;11982;50.810;4.442;2022-09-09T16:58:10;16.20;99.90
23609;DHT22;11982;50.810;4.442;2022-09-09T17:00:35;16.40;99.90
23609;DHT22;11982;50.810;4.442;2022-09-09T17:03:01;16.50;99.90
23609;DHT22;11982;50.810;4.442;2022-09-09T17:05:28;16.50;99.90
23609;DHT22;11982;50.810;4.442;2022-09-09T17:07:54;16.40;99.90
23609;DHT22;11982;50.810;4.442;2022-09-09T17:10:23;16.30;99.90
23609;DHT22;11982;50.810;4.442;2022-09-09T17:12:49;16.30;99.90
23609;DHT22;11982;50.810;4.442;2022-09-09T17:15:15;16.20;99.90
23609;DHT22;11982;50.810;4.442;2022-09-09T17:17:40;16.30;99.90
23609;DHT22;11982;50.810;4.442;2022-09-09T17:20:10;16.40;99.90
23609;DHT22;11982;50.810;4.442;2022-09-09T17:22:36;16.30;99.90
23609;DHT22;11982;50.810;4.442;2022-09-09T17:25:02;16.30;99.90
23609;DHT22;11982;50.810;4.442;2022-09-09T17:27:28;16.40;99.90
23609;DHT22;11982;50.810;4.442;2022-09-09T17:29:57;16.30;99.90
23609;DHT22;11982;50.810;4.442;2022-09-09T17:32:22;16.30;99.90
23609;DHT22;11982;50.810;4.442;2022-09-09T17:34:48;16.30;99.90
23609;DHT22;11982;50.810;4.442;2022-09-09T17:37:14;16.20;99.90
23609;DHT22;11982;50.810;4.442;2022-09-09T17:39:39;16.10;99.90
23609;DHT22;11982;50.810;4.442;2022-09-09T17:42:05;16.20;99.90
23609;DHT22;11982;50.810;4.442;2022-09-09T17:44:33;16.10;99.90